createdAt,value
2018-06-12T02:14:09.430Z,15.45
2018-06-12T02:16:38.497Z,15.47
2018-06-12T02:19:07.558Z,12.30
2018-06-12T02:21:36.616Z,16.73
2018-06-12T02:24:05.700Z,15.80
2018-06-12T02:26:34.764Z,13.57
2018-06-12T02:31:39.625Z,15.60
2018-06-12T02:36:44.465Z,10.00
2018-06-12T02:39:13.533Z,10.27
2018-06-12T02:41:42.581Z,11.63
2018-06-12T02:44:11.732Z,8.63
2018-06-12T02:46:40.812Z,11.77
2018-06-12T02:49:09.889Z,14.60
2018-06-12T02:51:38.961Z,10.57
2018-06-12T02:54:08.029Z,10.40
2018-06-12T02:56:37.100Z,9.93
2018-06-12T02:59:06.159Z,9.20
2018-06-12T03:01:35.238Z,11.50
2018-06-12T03:06:40.023Z,12.60
2018-06-12T03:09:09.102Z,12.30
2018-06-12T03:11:38.165Z,12.67
2018-06-12T03:16:42.953Z,12.63
2018-06-12T03:19:12.034Z,14.93
2018-06-12T03:21:41.097Z,13.37
2018-06-12T03:24:10.166Z,13.83
2018-06-12T03:26:39.242Z,14.33
2018-06-12T03:29:10.273Z,17.43
2018-06-12T03:31:39.349Z,15.47
2018-06-12T03:34:08.555Z,20.00
2018-06-12T03:36:37.625Z,17.70
2018-06-12T03:39:06.726Z,16.80
2018-06-12T03:41:35.803Z,17.33
2018-06-12T03:44:05.822Z,19.70
2018-06-12T03:46:34.930Z,17.37
2018-06-12T03:49:05.951Z,20.77
2018-06-12T03:51:35.012Z,19.00
2018-06-12T03:54:04.078Z,19.40
2018-06-12T03:56:33.155Z,22.67
2018-06-12T03:59:02.270Z,22.83
2018-06-12T04:01:31.346Z,22.23
2018-06-12T04:04:02.585Z,21.17
2018-06-12T04:06:32.608Z,21.60
2018-06-12T04:09:01.679Z,21.73
2018-06-12T04:11:30.735Z,19.60
2018-06-12T04:13:59.848Z,25.63
2018-06-12T04:16:28.941Z,20.73
2018-06-12T04:24:09.120Z,23.07
2018-06-12T04:26:38.210Z,23.40
2018-06-12T04:29:07.278Z,24.02
2018-06-12T04:31:37.311Z,22.17
2018-06-12T04:34:06.408Z,22.73
2018-06-12T04:39:11.797Z,24.40
2018-06-12T04:41:40.872Z,23.10
2018-06-12T04:44:09.952Z,27.50
2018-06-12T04:46:46.341Z,21.13
2018-06-12T04:49:15.478Z,20.33
2018-06-12T04:51:49.984Z,20.87
2018-06-12T04:54:23.011Z,20.23
2018-06-12T04:56:52.074Z,19.53
2018-06-12T04:59:26.477Z,22.83
2018-06-12T05:01:55.539Z,20.50
2018-06-12T05:04:24.593Z,20.63
2018-06-12T05:09:29.451Z,23.17
2018-06-12T05:11:58.516Z,22.80
2018-06-12T05:14:28.539Z,20.30
2018-06-12T05:16:58.524Z,20.60
2018-06-12T05:19:27.592Z,21.70
2018-06-12T05:21:56.653Z,18.80
2018-06-12T05:24:25.709Z,17.10
2018-06-12T05:26:54.775Z,16.67
2018-06-12T05:29:23.852Z,17.23
2018-06-12T05:31:52.923Z,17.70
2018-06-12T05:34:21.987Z,17.37
2018-06-12T05:36:51.058Z,16.40
2018-06-12T05:39:21.089Z,16.40
2018-06-12T05:41:51.072Z,16.53
2018-06-12T05:44:20.154Z,16.73
2018-06-12T05:46:49.241Z,16.73
2018-06-12T05:51:54.071Z,17.47
2018-06-12T05:59:36.734Z,17.40
2018-06-12T06:02:05.800Z,14.97
2018-06-12T06:04:34.856Z,14.00
2018-06-12T06:07:04.057Z,15.93
2018-06-12T06:09:33.125Z,15.73
2018-06-12T06:12:02.185Z,13.17
2018-06-12T06:14:31.252Z,14.30
2018-06-12T06:17:00.329Z,13.20
2018-06-12T06:19:29.395Z,12.97
2018-06-12T06:21:58.482Z,12.30
2018-06-12T06:24:28.600Z,11.93
2018-06-12T06:26:58.663Z,11.60
2018-06-12T06:29:28.256Z,11.17
2018-06-12T06:31:57.577Z,10.50
2018-06-12T06:34:28.485Z,10.20
2018-06-12T06:36:57.767Z,9.50
2018-06-12T06:39:28.104Z,10.37
2018-06-12T06:41:57.477Z,10.03
2018-06-12T06:47:04.464Z,10.90
2018-06-12T06:49:35.513Z,9.52
2018-06-12T06:52:05.775Z,9.10
2018-06-12T06:54:36.542Z,9.07
2018-06-12T06:57:05.941Z,8.30
2018-06-12T07:02:08.342Z,9.50
2018-06-12T07:04:38.113Z,9.30
2018-06-12T07:07:07.641Z,8.18
2018-06-12T07:09:36.891Z,7.90
2018-06-12T07:12:06.486Z,9.07
2018-06-12T07:14:35.551Z,8.43
2018-06-12T07:17:04.637Z,6.13
2018-06-12T07:19:33.785Z,6.60
2018-06-12T07:22:03.038Z,6.12
2018-06-12T07:24:35.607Z,5.90
2018-06-12T07:27:04.723Z,6.40
2018-06-12T07:29:33.805Z,5.60
2018-06-12T07:32:02.850Z,5.50
2018-06-12T07:34:31.914Z,6.00
2018-06-12T07:37:00.983Z,5.40
2018-06-12T07:39:30.038Z,8.30
2018-06-12T07:41:59.106Z,5.30
2018-06-12T07:47:04.476Z,4.18
2018-06-12T07:49:33.536Z,6.13
2018-06-12T07:52:02.593Z,5.30
2018-06-12T07:54:31.651Z,7.90
2018-06-12T07:57:00.721Z,6.30
2018-06-12T08:02:05.525Z,5.70
2018-06-12T08:09:50.595Z,5.18
2018-06-12T08:12:19.688Z,6.70
2018-06-12T08:14:48.746Z,5.50
2018-06-12T08:17:18.813Z,6.10
2018-06-12T08:22:27.076Z,4.57
2018-06-12T08:24:56.133Z,6.20
2018-06-12T08:27:28.933Z,4.90
2018-06-12T08:35:09.440Z,5.50
2018-06-12T08:37:38.496Z,4.60
2018-06-12T08:40:07.554Z,4.50
2018-06-12T08:42:36.614Z,4.30
2018-06-12T08:45:11.210Z,4.20
2018-06-12T08:47:45.128Z,4.27
2018-06-12T08:50:14.186Z,6.53
2018-06-12T08:52:43.268Z,8.70
2018-06-12T08:55:12.322Z,5.50
2018-06-12T09:00:17.202Z,4.10
2018-06-12T09:02:46.782Z,6.35
2018-06-12T09:05:15.817Z,5.40
2018-06-12T09:07:44.885Z,5.87
2018-06-12T09:10:13.998Z,7.30
2018-06-12T09:12:43.066Z,5.37
2018-06-12T09:15:12.124Z,6.60
2018-06-12T09:17:41.190Z,6.30
2018-06-12T09:20:10.232Z,4.13
2018-06-12T09:22:39.274Z,5.47
2018-06-12T09:25:08.373Z,5.25
2018-06-12T09:30:13.146Z,5.45
2018-06-12T09:35:17.978Z,5.53
2018-06-12T09:40:23.763Z,6.72
2018-06-12T09:42:52.872Z,5.30
2018-06-12T09:45:21.921Z,4.87
2018-06-12T09:47:51.997Z,4.43
2018-06-12T09:50:21.046Z,4.30
2018-06-12T09:52:50.094Z,5.47
2018-06-12T09:55:19.154Z,3.30
2018-06-12T09:57:48.246Z,4.43
2018-06-12T10:02:56.701Z,3.40
2018-06-12T10:05:25.766Z,3.15
2018-06-12T10:10:31.695Z,4.90
2018-06-12T10:15:37.573Z,4.20
2018-06-12T10:18:06.626Z,3.83
2018-06-12T10:20:35.665Z,3.97
2018-06-12T10:23:06.622Z,3.60
2018-06-12T10:28:11.472Z,3.47
2018-06-12T10:30:40.529Z,2.80
2018-06-12T10:33:09.577Z,3.35
2018-06-12T10:35:38.634Z,3.47
2018-06-12T10:38:07.693Z,2.50
2018-06-12T10:40:36.737Z,8.33
2018-06-12T10:43:06.205Z,4.90
2018-06-12T10:45:35.272Z,3.23
2018-06-12T10:50:40.126Z,3.60
2018-06-12T10:55:45.062Z,3.80
2018-06-12T10:58:14.093Z,5.23
2018-06-12T11:00:43.163Z,5.40
2018-06-12T11:03:12.214Z,7.03
2018-06-12T11:05:41.277Z,3.47
2018-06-12T11:08:10.345Z,3.60
2018-06-12T11:10:39.396Z,5.50
2018-06-12T11:13:08.465Z,5.60
2018-06-12T11:15:37.507Z,3.60
2018-06-12T11:18:06.726Z,2.40
2018-06-12T11:20:35.878Z,5.10
2018-06-12T11:25:40.224Z,4.78
2018-06-12T11:28:09.329Z,4.20
2018-06-12T11:30:38.398Z,2.57
2018-06-12T11:33:08.445Z,2.10
2018-06-12T11:35:37.448Z,4.87
2018-06-12T11:38:10.386Z,3.67
2018-06-12T11:40:39.469Z,3.90
2018-06-12T11:43:08.515Z,3.80
2018-06-12T11:45:37.571Z,2.77
2018-06-12T11:50:43.452Z,3.92
2018-06-12T11:53:15.665Z,4.83
2018-06-12T11:55:44.738Z,3.50
2018-06-12T11:58:13.804Z,4.37
2018-06-12T12:00:42.880Z,2.90
2018-06-12T12:03:11.946Z,4.17
2018-06-12T12:05:41.034Z,5.40
2018-06-12T12:08:10.153Z,4.60
2018-06-12T12:10:39.543Z,2.47
2018-06-12T12:13:08.628Z,3.27
2018-06-12T12:15:37.675Z,3.30
2018-06-12T12:18:06.757Z,3.10
2018-06-12T12:20:35.802Z,2.37
2018-06-12T12:23:05.591Z,5.40
2018-06-12T12:25:34.654Z,5.53
2018-06-12T12:28:04.995Z,2.60
2018-06-12T12:33:09.931Z,4.85
2018-06-12T12:35:39.021Z,3.40
2018-06-12T12:38:08.082Z,4.63
2018-06-12T12:40:37.202Z,4.10
2018-06-12T12:43:07.078Z,6.57
2018-06-12T12:45:36.144Z,3.65
2018-06-12T12:48:05.971Z,5.13
2018-06-12T12:53:10.852Z,3.05
2018-06-12T12:55:39.911Z,4.43
2018-06-12T12:58:09.039Z,4.03
2018-06-12T13:00:40.042Z,3.33
2018-06-12T13:03:09.099Z,3.00
2018-06-12T13:08:15.476Z,5.12
2018-06-12T13:10:45.465Z,3.00
2018-06-12T13:13:14.556Z,5.20
2018-06-12T13:15:44.603Z,4.22
2018-06-12T13:18:13.662Z,4.50
2018-06-12T13:20:42.721Z,4.20
2018-06-12T13:23:11.854Z,3.20
2018-06-12T13:25:41.926Z,5.22
2018-06-12T13:28:11.062Z,4.30
2018-06-12T13:30:40.098Z,6.27
2018-06-12T13:33:09.156Z,5.28
2018-06-12T13:35:38.234Z,4.00
2018-06-12T13:40:43.070Z,3.97
2018-06-12T13:43:12.192Z,4.97
2018-06-12T13:45:41.272Z,6.27
2018-06-12T13:48:14.849Z,4.70
2018-06-12T13:50:48.130Z,6.68
2018-06-12T13:55:59.108Z,4.73
2018-06-12T13:58:28.259Z,4.22
2018-06-12T14:00:57.365Z,4.80
2018-06-12T14:03:26.438Z,4.13
2018-06-12T14:05:55.517Z,4.30
2018-06-12T14:08:24.596Z,7.00
2018-06-12T14:10:54.640Z,6.35
2018-06-12T14:13:23.688Z,5.80
2018-06-12T14:15:57.361Z,4.50
2018-06-12T14:18:26.693Z,5.40
2018-06-12T14:20:55.814Z,4.53
2018-06-12T14:23:24.869Z,5.10
2018-06-12T14:25:54.862Z,6.77
2018-06-12T14:28:23.941Z,5.23
2018-06-12T14:30:52.997Z,6.63
2018-06-12T14:33:22.060Z,5.00
2018-06-12T14:38:32.822Z,5.53
2018-06-12T14:43:37.640Z,5.15
2018-06-12T14:46:07.850Z,6.47
2018-06-12T14:48:36.969Z,6.30
2018-06-12T14:51:06.121Z,4.37
2018-06-12T14:53:35.193Z,5.43
2018-06-12T14:58:40.519Z,3.87
2018-06-12T15:01:11.703Z,5.53
2018-06-12T15:03:41.808Z,7.50
2018-06-12T15:06:10.853Z,5.90
2018-06-12T15:08:39.929Z,5.63
2018-06-12T15:13:44.758Z,5.70
2018-06-12T15:16:13.828Z,4.03
2018-06-12T15:18:42.882Z,3.10
2018-06-12T15:23:47.669Z,2.87
2018-06-12T15:26:24.547Z,3.42
2018-06-12T15:28:53.618Z,5.27
2018-06-12T15:31:22.682Z,7.83
2018-06-12T15:33:51.751Z,12.63
2018-06-12T15:38:56.675Z,17.95
2018-06-12T15:41:26.717Z,16.85
2018-06-12T15:43:55.806Z,14.53
2018-06-12T15:46:24.870Z,44.90
2018-06-12T15:48:53.917Z,15.90
2018-06-12T15:53:58.812Z,20.67
2018-06-12T15:56:27.876Z,12.63
2018-06-12T15:58:56.932Z,8.83
